sensor_id;sensor_type;location;lat;lon;timestamp;P1;durP1;ratioP1;P2;durP2;ratioP2
84007;SDS011;74070;50.948;6.954;2024-01-16T00:01:29;11.17;;;5.43;;
84007;SDS011;74070;50.948;6.954;2024-01-16T00:03:56;9.53;;;5.83;;
84007;SDS011;74070;50.948;6.954;2024-01-16T00:06:23;10.67;;;5.80;;
84007;SDS011;74070;50.948;6.954;2024-01-16T00:08:50;11.50;;;5.93;;
84007;SDS011;74070;50.948;6.954;2024-01-16T00:11:16;13.20;;;7.33;;
84007;SDS011;74070;50.948;6.954;2024-01-16T00:13:43;12.83;;;7.17;;
84007;SDS011;74070;50.948;6.954;2024-01-16T00:16:10;12.73;;;7.07;;
84007;SDS011;74070;50.948;6.954;2024-01-16T00:18:36;10.60;;;6.17;;
84007;SDS011;74070;50.948;6.954;2024-01-16T00:21:03;6.27;;;5.37;;
84007;SDS011;74070;50.948;6.954;2024-01-16T00:23:30;8.83;;;5.30;;
84007;SDS011;74070;50.948;6.954;2024-01-16T00:25:58;11.90;;;6.77;;
84007;SDS011;74070;50.948;6.954;2024-01-16T00:28:25;9.57;;;5.20;;
84007;SDS011;74070;50.948;6.954;2024-01-16T00:30:51;12.57;;;6.80;;
84007;SDS011;74070;50.948;6.954;2024-01-16T00:33:19;28.97;;;13.23;;
84007;SDS011;74070;50.948;6.954;2024-01-16T00:35:45;19.23;;;7.50;;
84007;SDS011;74070;50.948;6.954;2024-01-16T00:38:12;20.87;;;10.10;;
84007;SDS011;74070;50.948;6.954;2024-01-16T00:40:38;9.07;;;6.07;;
84007;SDS011;74070;50.948;6.954;2024-01-16T00:43:05;14.53;;;7.37;;
84007;SDS011;74070;50.948;6.954;2024-01-16T00:45:32;12.47;;;6.47;;
84007;SDS011;74070;50.948;6.954;2024-01-16T00:47:58;17.33;;;6.33;;
84007;SDS011;74070;50.948;6.954;2024-01-16T00:50:25;7.90;;;6.53;;
84007;SDS011;74070;50.948;6.954;2024-01-16T00:52:51;10.53;;;5.40;;
84007;SDS011;74070;50.948;6.954;2024-01-16T00:55:18;16.30;;;7.20;;
84007;SDS011;74070;50.948;6.954;2024-01-16T00:57:45;13.73;;;7.23;;
84007;SDS011;74070;50.948;6.954;2024-01-16T01:00:12;8.23;;;4.73;;
84007;SDS011;74070;50.948;6.954;2024-01-16T01:02:39;6.23;;;4.90;;
84007;SDS011;74070;50.948;6.954;2024-01-16T01:05:06;9.87;;;6.40;;
84007;SDS011;74070;50.948;6.954;2024-01-16T01:07:33;13.17;;;5.43;;
84007;SDS011;74070;50.948;6.954;2024-01-16T01:10:00;11.23;;;6.07;;
84007;SDS011;74070;50.948;6.954;2024-01-16T01:12:28;12.10;;;5.70;;
84007;SDS011;74070;50.948;6.954;2024-01-16T01:14:55;12.03;;;7.03;;
84007;SDS011;74070;50.948;6.954;2024-01-16T01:17:21;10.80;;;5.93;;
84007;SDS011;74070;50.948;6.954;2024-01-16T01:19:48;13.77;;;6.30;;
84007;SDS011;74070;50.948;6.954;2024-01-16T01:22:15;10.30;;;5.87;;
84007;SDS011;74070;50.948;6.954;2024-01-16T01:24:41;11.27;;;6.07;;
84007;SDS011;74070;50.948;6.954;2024-01-16T01:27:08;14.37;;;6.03;;
84007;SDS011;74070;50.948;6.954;2024-01-16T01:29:35;12.80;;;5.83;;
84007;SDS011;74070;50.948;6.954;2024-01-16T01:32:02;10.77;;;6.40;;
84007;SDS011;74070;50.948;6.954;2024-01-16T01:34:29;14.40;;;6.30;;
84007;SDS011;74070;50.948;6.954;2024-01-16T01:36:56;11.73;;;4.83;;
84007;SDS011;74070;50.948;6.954;2024-01-16T01:39:23;6.57;;;4.67;;
84007;SDS011;74070;50.948;6.954;2024-01-16T01:41:51;9.93;;;5.67;;
84007;SDS011;74070;50.948;6.954;2024-01-16T01:44:18;8.97;;;4.33;;
84007;SDS011;74070;50.948;6.954;2024-01-16T01:46:45;7.83;;;5.03;;
84007;SDS011;74070;50.948;6.954;2024-01-16T01:49:12;10.90;;;6.30;;
84007;SDS011;74070;50.948;6.954;2024-01-16T01:51:38;10.87;;;4.97;;
84007;SDS011;74070;50.948;6.954;2024-01-16T01:54:04;7.13;;;4.73;;
84007;SDS011;74070;50.948;6.954;2024-01-16T01:56:31;7.93;;;4.60;;
84007;SDS011;74070;50.948;6.954;2024-01-16T01:58:58;7.17;;;5.53;;
84007;SDS011;74070;50.948;6.954;2024-01-16T02:01:25;9.97;;;5.87;;
84007;SDS011;74070;50.948;6.954;2024-01-16T02:03:52;8.50;;;5.43;;
84007;SDS011;74070;50.948;6.954;2024-01-16T02:06:19;7.87;;;4.23;;
84007;SDS011;74070;50.948;6.954;2024-01-16T02:08:45;10.53;;;6.07;;
84007;SDS011;74070;50.948;6.954;2024-01-16T02:11:12;9.17;;;6.53;;
84007;SDS011;74070;50.948;6.954;2024-01-16T02:13:39;7.03;;;4.93;;
84007;SDS011;74070;50.948;6.954;2024-01-16T02:16:05;9.77;;;7.77;;
84007;SDS011;74070;50.948;6.954;2024-01-16T02:18:32;11.30;;;6.43;;
84007;SDS011;74070;50.948;6.954;2024-01-16T02:21:00;9.03;;;6.37;;
84007;SDS011;74070;50.948;6.954;2024-01-16T02:23:27;9.37;;;6.83;;
84007;SDS011;74070;50.948;6.954;2024-01-16T02:25:53;12.20;;;5.80;;
84007;SDS011;74070;50.948;6.954;2024-01-16T02:28:20;9.47;;;6.73;;
84007;SDS011;74070;50.948;6.954;2024-01-16T02:30:47;11.67;;;5.27;;
84007;SDS011;74070;50.948;6.954;2024-01-16T02:33:14;11.07;;;7.07;;
84007;SDS011;74070;50.948;6.954;2024-01-16T02:35:40;9.87;;;6.90;;
84007;SDS011;74070;50.948;6.954;2024-01-16T02:38:07;12.30;;;6.50;;
84007;SDS011;74070;50.948;6.954;2024-01-16T02:40:34;12.97;;;6.50;;
84007;SDS011;74070;50.948;6.954;2024-01-16T02:43:00;16.73;;;6.77;;
84007;SDS011;74070;50.948;6.954;2024-01-16T02:45:27;14.40;;;7.23;;
84007;SDS011;74070;50.948;6.954;2024-01-16T02:47:53;13.00;;;6.40;;
84007;SDS011;74070;50.948;6.954;2024-01-16T02:50:20;7.40;;;5.50;;
84007;SDS011;74070;50.948;6.954;2024-01-16T02:52:46;14.73;;;6.37;;
84007;SDS011;74070;50.948;6.954;2024-01-16T02:55:13;12.40;;;5.73;;
84007;SDS011;74070;50.948;6.954;2024-01-16T02:57:41;11.97;;;7.03;;
84007;SDS011;74070;50.948;6.954;2024-01-16T03:00:07;11.37;;;5.20;;
84007;SDS011;74070;50.948;6.954;2024-01-16T03:02:34;16.73;;;6.90;;
84007;SDS011;74070;50.948;6.954;2024-01-16T03:05:02;13.37;;;6.87;;
84007;SDS011;74070;50.948;6.954;2024-01-16T03:07:27;9.97;;;6.27;;
84007;SDS011;74070;50.948;6.954;2024-01-16T03:09:54;7.70;;;4.97;;
84007;SDS011;74070;50.948;6.954;2024-01-16T03:12:21;8.90;;;4.70;;
84007;SDS011;74070;50.948;6.954;2024-01-16T03:14:49;11.50;;;6.67;;
84007;SDS011;74070;50.948;6.954;2024-01-16T03:17:16;11.87;;;6.70;;
84007;SDS011;74070;50.948;6.954;2024-01-16T03:19:43;12.23;;;4.70;;
84007;SDS011;74070;50.948;6.954;2024-01-16T03:22:09;8.13;;;5.27;;
84007;SDS011;74070;50.948;6.954;2024-01-16T03:24:36;13.23;;;7.87;;
84007;SDS011;74070;50.948;6.954;2024-01-16T03:27:02;18.77;;;7.70;;
84007;SDS011;74070;50.948;6.954;2024-01-16T03:29:29;10.87;;;6.07;;
84007;SDS011;74070;50.948;6.954;2024-01-16T03:31:56;13.03;;;7.13;;
84007;SDS011;74070;50.948;6.954;2024-01-16T03:34:23;7.97;;;5.03;;
84007;SDS011;74070;50.948;6.954;2024-01-16T03:36:49;12.20;;;4.67;;
84007;SDS011;74070;50.948;6.954;2024-01-16T03:39:15;9.40;;;4.97;;
84007;SDS011;74070;50.948;6.954;2024-01-16T03:41:43;15.17;;;7.10;;
84007;SDS011;74070;50.948;6.954;2024-01-16T03:44:10;12.77;;;6.77;;
84007;SDS011;74070;50.948;6.954;2024-01-16T03:46:36;12.97;;;7.37;;
84007;SDS011;74070;50.948;6.954;2024-01-16T03:49:03;14.73;;;7.70;;
84007;SDS011;74070;50.948;6.954;2024-01-16T03:51:29;15.90;;;7.63;;
84007;SDS011;74070;50.948;6.954;2024-01-16T03:53:56;15.67;;;6.27;;
84007;SDS011;74070;50.948;6.954;2024-01-16T03:56:23;15.37;;;6.43;;
84007;SDS011;74070;50.948;6.954;2024-01-16T03:58:51;16.47;;;8.73;;
84007;SDS011;74070;50.948;6.954;2024-01-16T04:01:17;16.27;;;7.17;;
84007;SDS011;74070;50.948;6.954;2024-01-16T04:03:44;11.00;;;6.33;;
84007;SDS011;74070;50.948;6.954;2024-01-16T04:06:14;13.53;;;7.70;;
84007;SDS011;74070;50.948;6.954;2024-01-16T04:08:40;16.57;;;8.07;;
84007;SDS011;74070;50.948;6.954;2024-01-16T04:11:11;13.63;;;8.73;;
84007;SDS011;74070;50.948;6.954;2024-01-16T04:13:35;16.23;;;9.17;;
84007;SDS011;74070;50.948;6.954;2024-01-16T04:16:02;9.67;;;7.30;;
84007;SDS011;74070;50.948;6.954;2024-01-16T04:18:29;7.13;;;5.83;;
84007;SDS011;74070;50.948;6.954;2024-01-16T04:20:55;12.53;;;9.03;;
84007;SDS011;74070;50.948;6.954;2024-01-16T04:23:22;14.43;;;7.93;;
84007;SDS011;74070;50.948;6.954;2024-01-16T04:25:48;13.33;;;7.57;;
84007;SDS011;74070;50.948;6.954;2024-01-16T04:28:15;11.67;;;7.67;;
84007;SDS011;74070;50.948;6.954;2024-01-16T04:30:42;15.30;;;7.90;;
84007;SDS011;74070;50.948;6.954;2024-01-16T04:33:08;14.93;;;8.10;;
84007;SDS011;74070;50.948;6.954;2024-01-16T04:35:35;9.47;;;7.30;;
84007;SDS011;74070;50.948;6.954;2024-01-16T04:38:01;11.10;;;6.27;;
84007;SDS011;74070;50.948;6.954;2024-01-16T04:40:28;10.53;;;7.47;;
84007;SDS011;74070;50.948;6.954;2024-01-16T04:42:55;18.67;;;9.47;;
84007;SDS011;74070;50.948;6.954;2024-01-16T04:45:21;12.07;;;6.80;;
84007;SDS011;74070;50.948;6.954;2024-01-16T04:47:48;7.63;;;4.83;;
84007;SDS011;74070;50.948;6.954;2024-01-16T04:50:15;10.13;;;6.23;;
84007;SDS011;74070;50.948;6.954;2024-01-16T04:52:43;14.70;;;7.27;;
84007;SDS011;74070;50.948;6.954;2024-01-16T04:55:09;12.93;;;6.80;;
84007;SDS011;74070;50.948;6.954;2024-01-16T04:57:36;16.97;;;6.73;;
84007;SDS011;74070;50.948;6.954;2024-01-16T05:00:03;13.57;;;6.83;;
84007;SDS011;74070;50.948;6.954;2024-01-16T05:02:31;8.03;;;3.70;;
84007;SDS011;74070;50.948;6.954;2024-01-16T05:04:59;10.10;;;5.57;;
84007;SDS011;74070;50.948;6.954;2024-01-16T05:07:26;6.07;;;4.30;;
84007;SDS011;74070;50.948;6.954;2024-01-16T05:09:52;8.73;;;4.83;;
84007;SDS011;74070;50.948;6.954;2024-01-16T05:12:19;15.00;;;4.83;;
84007;SDS011;74070;50.948;6.954;2024-01-16T05:14:46;9.07;;;4.80;;
84007;SDS011;74070;50.948;6.954;2024-01-16T05:17:12;6.97;;;4.87;;
84007;SDS011;74070;50.948;6.954;2024-01-16T05:19:39;15.40;;;5.57;;
84007;SDS011;74070;50.948;6.954;2024-01-16T05:22:05;6.93;;;3.83;;
84007;SDS011;74070;50.948;6.954;2024-01-16T05:24:33;12.80;;;5.60;;
84007;SDS011;74070;50.948;6.954;2024-01-16T05:27:00;13.23;;;5.63;;
84007;SDS011;74070;50.948;6.954;2024-01-16T05:29:28;17.77;;;5.10;;
84007;SDS011;74070;50.948;6.954;2024-01-16T05:31:54;13.23;;;5.27;;
84007;SDS011;74070;50.948;6.954;2024-01-16T05:34:21;14.07;;;5.27;;
84007;SDS011;74070;50.948;6.954;2024-01-16T05:36:47;13.43;;;6.23;;
84007;SDS011;74070;50.948;6.954;2024-01-16T05:39:14;14.50;;;5.63;;
84007;SDS011;74070;50.948;6.954;2024-01-16T05:41:41;15.73;;;5.90;;
84007;SDS011;74070;50.948;6.954;2024-01-16T05:44:07;19.83;;;5.97;;
84007;SDS011;74070;50.948;6.954;2024-01-16T05:46:34;16.60;;;5.33;;
84007;SDS011;74070;50.948;6.954;2024-01-16T05:49:00;11.70;;;5.60;;
84007;SDS011;74070;50.948;6.954;2024-01-16T05:51:28;10.93;;;5.57;;
84007;SDS011;74070;50.948;6.954;2024-01-16T05:53:55;17.47;;;6.00;;
84007;SDS011;74070;50.948;6.954;2024-01-16T05:56:22;16.87;;;6.07;;
84007;SDS011;74070;50.948;6.954;2024-01-16T05:58:48;17.47;;;7.10;;
84007;SDS011;74070;50.948;6.954;2024-01-16T06:01:15;10.07;;;4.07;;
84007;SDS011;74070;50.948;6.954;2024-01-16T06:03:42;11.03;;;6.17;;
84007;SDS011;74070;50.948;6.954;2024-01-16T06:06:08;12.23;;;5.70;;
84007;SDS011;74070;50.948;6.954;2024-01-16T06:08:35;15.13;;;6.30;;
84007;SDS011;74070;50.948;6.954;2024-01-16T06:11:01;9.60;;;5.87;;
84007;SDS011;74070;50.948;6.954;2024-01-16T06:13:28;9.30;;;5.17;;
84007;SDS011;74070;50.948;6.954;2024-01-16T06:15:55;16.90;;;5.47;;
84007;SDS011;74070;50.948;6.954;2024-01-16T06:18:21;12.67;;;5.23;;
84007;SDS011;74070;50.948;6.954;2024-01-16T06:20:48;10.73;;;4.23;;
84007;SDS011;74070;50.948;6.954;2024-01-16T06:23:15;13.23;;;3.53;;
84007;SDS011;74070;50.948;6.954;2024-01-16T06:25:42;13.47;;;4.83;;
84007;SDS011;74070;50.948;6.954;2024-01-16T06:28:08;11.07;;;5.30;;
84007;SDS011;74070;50.948;6.954;2024-01-16T06:30:35;10.60;;;4.67;;
84007;SDS011;74070;50.948;6.954;2024-01-16T06:33:02;16.50;;;4.90;;
84007;SDS011;74070;50.948;6.954;2024-01-16T06:35:28;9.87;;;5.43;;
84007;SDS011;74070;50.948;6.954;2024-01-16T06:37:56;9.17;;;4.10;;
84007;SDS011;74070;50.948;6.954;2024-01-16T06:40:24;15.27;;;4.70;;
84007;SDS011;74070;50.948;6.954;2024-01-16T06:42:50;11.27;;;4.70;;
84007;SDS011;74070;50.948;6.954;2024-01-16T06:45:17;14.87;;;5.13;;
84007;SDS011;74070;50.948;6.954;2024-01-16T06:47:43;18.70;;;5.43;;
84007;SDS011;74070;50.948;6.954;2024-01-16T06:50:10;9.97;;;4.23;;
84007;SDS011;74070;50.948;6.954;2024-01-16T06:52:37;7.47;;;3.00;;
84007;SDS011;74070;50.948;6.954;2024-01-16T06:55:04;10.67;;;4.47;;
84007;SDS011;74070;50.948;6.954;2024-01-16T06:57:31;12.10;;;4.13;;
84007;SDS011;74070;50.948;6.954;2024-01-16T06:59:57;12.50;;;4.27;;
84007;SDS011;74070;50.948;6.954;2024-01-16T07:02:25;9.30;;;4.37;;
84007;SDS011;74070;50.948;6.954;2024-01-16T07:04:51;12.07;;;4.43;;
84007;SDS011;74070;50.948;6.954;2024-01-16T07:07:18;13.53;;;4.73;;
84007;SDS011;74070;50.948;6.954;2024-01-16T07:09:45;13.90;;;3.77;;
84007;SDS011;74070;50.948;6.954;2024-01-16T07:12:12;7.87;;;4.10;;
84007;SDS011;74070;50.948;6.954;2024-01-16T07:14:38;10.90;;;3.20;;
84007;SDS011;74070;50.948;6.954;2024-01-16T07:17:05;11.90;;;3.53;;
84007;SDS011;74070;50.948;6.954;2024-01-16T07:19:32;12.57;;;4.00;;
84007;SDS011;74070;50.948;6.954;2024-01-16T07:21:58;12.13;;;3.93;;
84007;SDS011;74070;50.948;6.954;2024-01-16T07:24:26;8.70;;;3.77;;
84007;SDS011;74070;50.948;6.954;2024-01-16T07:26:53;10.77;;;4.40;;
84007;SDS011;74070;50.948;6.954;2024-01-16T07:29:19;8.20;;;3.40;;
84007;SDS011;74070;50.948;6.954;2024-01-16T07:31:46;6.90;;;3.73;;
84007;SDS011;74070;50.948;6.954;2024-01-16T07:34:13;9.80;;;3.90;;
84007;SDS011;74070;50.948;6.954;2024-01-16T07:36:39;9.00;;;2.90;;
84007;SDS011;74070;50.948;6.954;2024-01-16T07:39:06;7.83;;;2.83;;
84007;SDS011;74070;50.948;6.954;2024-01-16T07:41:32;7.83;;;4.03;;
84007;SDS011;74070;50.948;6.954;2024-01-16T07:43:59;10.13;;;3.57;;
84007;SDS011;74070;50.948;6.954;2024-01-16T07:46:26;11.73;;;3.77;;
84007;SDS011;74070;50.948;6.954;2024-01-16T07:48:53;10.40;;;3.07;;
84007;SDS011;74070;50.948;6.954;2024-01-16T07:51:20;12.03;;;4.53;;
84007;SDS011;74070;50.948;6.954;2024-01-16T07:53:46;12.90;;;4.00;;
84007;SDS011;74070;50.948;6.954;2024-01-16T07:56:13;8.70;;;3.33;;
84007;SDS011;74070;50.948;6.954;2024-01-16T07:58:40;8.53;;;3.47;;
84007;SDS011;74070;50.948;6.954;2024-01-16T08:01:06;4.43;;;2.83;;
84007;SDS011;74070;50.948;6.954;2024-01-16T08:03:33;14.13;;;3.07;;
84007;SDS011;74070;50.948;6.954;2024-01-16T08:06:00;10.33;;;3.40;;
84007;SDS011;74070;50.948;6.954;2024-01-16T08:08:27;7.83;;;2.93;;
84007;SDS011;74070;50.948;6.954;2024-01-16T08:10:53;6.53;;;3.60;;
84007;SDS011;74070;50.948;6.954;2024-01-16T08:13:20;9.23;;;3.83;;
84007;SDS011;74070;50.948;6.954;2024-01-16T08:15:47;9.67;;;3.20;;
84007;SDS011;74070;50.948;6.954;2024-01-16T08:18:14;7.77;;;2.37;;
84007;SDS011;74070;50.948;6.954;2024-01-16T08:20:41;7.87;;;2.60;;
84007;SDS011;74070;50.948;6.954;2024-01-16T08:23:07;6.77;;;2.77;;
84007;SDS011;74070;50.948;6.954;2024-01-16T08:25:34;7.40;;;2.03;;
84007;SDS011;74070;50.948;6.954;2024-01-16T08:28:00;5.10;;;2.90;;
84007;SDS011;74070;50.948;6.954;2024-01-16T08:30:27;15.13;;;2.83;;
84007;SDS011;74070;50.948;6.954;2024-01-16T08:32:54;10.30;;;2.57;;
84007;SDS011;74070;50.948;6.954;2024-01-16T08:35:20;8.23;;;3.00;;
84007;SDS011;74070;50.948;6.954;2024-01-16T08:37:47;9.03;;;2.53;;
84007;SDS011;74070;50.948;6.954;2024-01-16T08:40:14;13.13;;;3.47;;
84007;SDS011;74070;50.948;6.954;2024-01-16T08:42:40;5.53;;;2.77;;
84007;SDS011;74070;50.948;6.954;2024-01-16T08:45:08;5.73;;;2.53;;
84007;SDS011;74070;50.948;6.954;2024-01-16T08:47:34;6.13;;;2.17;;
84007;SDS011;74070;50.948;6.954;2024-01-16T08:50:01;7.87;;;2.47;;
84007;SDS011;74070;50.948;6.954;2024-01-16T08:52:28;11.00;;;2.90;;
84007;SDS011;74070;50.948;6.954;2024-01-16T08:54:55;14.73;;;2.70;;
84007;SDS011;74070;50.948;6.954;2024-01-16T08:57:22;8.27;;;2.80;;
84007;SDS011;74070;50.948;6.954;2024-01-16T08:59:48;4.27;;;2.63;;
84007;SDS011;74070;50.948;6.954;2024-01-16T09:02:15;10.67;;;2.90;;
84007;SDS011;74070;50.948;6.954;2024-01-16T09:04:42;9.50;;;3.20;;
84007;SDS011;74070;50.948;6.954;2024-01-16T09:07:09;7.47;;;2.63;;
84007;SDS011;74070;50.948;6.954;2024-01-16T09:09:35;6.97;;;2.90;;
84007;SDS011;74070;50.948;6.954;2024-01-16T09:12:02;7.57;;;2.13;;
84007;SDS011;74070;50.948;6.954;2024-01-16T09:14:29;6.53;;;2.70;;
84007;SDS011;74070;50.948;6.954;2024-01-16T09:16:55;6.03;;;2.30;;
84007;SDS011;74070;50.948;6.954;2024-01-16T09:19:22;12.53;;;2.77;;
84007;SDS011;74070;50.948;6.954;2024-01-16T09:21:49;13.00;;;2.87;;
84007;SDS011;74070;50.948;6.954;2024-01-16T09:24:15;10.43;;;2.13;;
84007;SDS011;74070;50.948;6.954;2024-01-16T09:26:42;9.90;;;2.70;;
84007;SDS011;74070;50.948;6.954;2024-01-16T09:29:09;5.97;;;2.50;;
84007;SDS011;74070;50.948;6.954;2024-01-16T09:31:36;8.20;;;2.63;;
84007;SDS011;74070;50.948;6.954;2024-01-16T09:34:04;11.80;;;3.10;;
84007;SDS011;74070;50.948;6.954;2024-01-16T09:36:30;3.40;;;2.00;;
84007;SDS011;74070;50.948;6.954;2024-01-16T09:38:56;5.10;;;2.70;;
84007;SDS011;74070;50.948;6.954;2024-01-16T09:41:23;8.80;;;2.60;;
84007;SDS011;74070;50.948;6.954;2024-01-16T09:43:49;8.50;;;2.63;;
84007;SDS011;74070;50.948;6.954;2024-01-16T09:46:16;7.97;;;3.10;;
84007;SDS011;74070;50.948;6.954;2024-01-16T09:48:44;10.57;;;2.60;;
84007;SDS011;74070;50.948;6.954;2024-01-16T09:51:09;8.13;;;2.43;;
84007;SDS011;74070;50.948;6.954;2024-01-16T09:53:36;8.90;;;3.17;;
84007;SDS011;74070;50.948;6.954;2024-01-16T09:56:03;11.53;;;3.10;;
84007;SDS011;74070;50.948;6.954;2024-01-16T09:58:30;7.00;;;3.00;;
84007;SDS011;74070;50.948;6.954;2024-01-16T10:00:56;8.90;;;2.60;;
84007;SDS011;74070;50.948;6.954;2024-01-16T10:03:22;10.73;;;3.27;;
84007;SDS011;74070;50.948;6.954;2024-01-16T10:05:49;9.07;;;3.70;;
84007;SDS011;74070;50.948;6.954;2024-01-16T10:08:16;12.17;;;3.00;;
84007;SDS011;74070;50.948;6.954;2024-01-16T10:10:42;7.20;;;2.67;;
84007;SDS011;74070;50.948;6.954;2024-01-16T10:13:09;8.97;;;3.53;;
84007;SDS011;74070;50.948;6.954;2024-01-16T10:15:35;9.80;;;3.23;;
84007;SDS011;74070;50.948;6.954;2024-01-16T10:18:02;5.27;;;2.90;;
84007;SDS011;74070;50.948;6.954;2024-01-16T10:20:32;6.53;;;2.77;;
84007;SDS011;74070;50.948;6.954;2024-01-16T10:22:58;10.67;;;3.40;;
84007;SDS011;74070;50.948;6.954;2024-01-16T10:25:25;12.87;;;3.10;;
84007;SDS011;74070;50.948;6.954;2024-01-16T10:28:02;10.03;;;3.00;;
84007;SDS011;74070;50.948;6.954;2024-01-16T10:30:30;5.53;;;2.47;;
84007;SDS011;74070;50.948;6.954;2024-01-16T10:33:00;5.97;;;2.83;;
84007;SDS011;74070;50.948;6.954;2024-01-16T10:35:23;7.33;;;2.63;;
84007;SDS011;74070;50.948;6.954;2024-01-16T10:37:50;7.17;;;2.80;;
84007;SDS011;74070;50.948;6.954;2024-01-16T10:40:16;9.33;;;3.03;;
84007;SDS011;74070;50.948;6.954;2024-01-16T10:42:43;11.70;;;3.00;;
84007;SDS011;74070;50.948;6.954;2024-01-16T10:45:11;5.57;;;2.37;;
84007;SDS011;74070;50.948;6.954;2024-01-16T10:47:36;8.93;;;2.77;;
84007;SDS011;74070;50.948;6.954;2024-01-16T10:50:03;5.00;;;2.60;;
84007;SDS011;74070;50.948;6.954;2024-01-16T10:52:29;6.40;;;2.73;;
84007;SDS011;74070;50.948;6.954;2024-01-16T10:54:57;8.67;;;2.80;;
84007;SDS011;74070;50.948;6.954;2024-01-16T10:57:24;11.40;;;2.60;;
84007;SDS011;74070;50.948;6.954;2024-01-16T10:59:58;13.97;;;3.03;;
84007;SDS011;74070;50.948;6.954;2024-01-16T11:02:20;14.43;;;3.10;;
84007;SDS011;74070;50.948;6.954;2024-01-16T11:04:45;6.90;;;2.80;;
84007;SDS011;74070;50.948;6.954;2024-01-16T11:07:13;13.07;;;3.20;;
84007;SDS011;74070;50.948;6.954;2024-01-16T11:09:40;10.87;;;3.20;;
84007;SDS011;74070;50.948;6.954;2024-01-16T11:12:07;9.40;;;3.03;;
84007;SDS011;74070;50.948;6.954;2024-01-16T11:14:33;7.10;;;3.33;;
84007;SDS011;74070;50.948;6.954;2024-01-16T11:17:00;6.30;;;2.27;;
84007;SDS011;74070;50.948;6.954;2024-01-16T11:19:27;4.00;;;2.40;;
84007;SDS011;74070;50.948;6.954;2024-01-16T11:21:53;4.97;;;2.70;;
84007;SDS011;74070;50.948;6.954;2024-01-16T11:24:20;9.73;;;2.80;;
84007;SDS011;74070;50.948;6.954;2024-01-16T11:26:47;8.37;;;2.80;;
84007;SDS011;74070;50.948;6.954;2024-01-16T11:31:51;7.23;;;2.40;;
84007;SDS011;74070;50.948;6.954;2024-01-16T11:36:56;14.33;;;4.93;;
84007;SDS011;74070;50.948;6.954;2024-01-16T11:39:24;10.00;;;2.57;;
84007;SDS011;74070;50.948;6.954;2024-01-16T11:41:52;10.23;;;3.00;;
84007;SDS011;74070;50.948;6.954;2024-01-16T11:47:00;7.30;;;2.90;;
84007;SDS011;74070;50.948;6.954;2024-01-16T11:49:26;9.13;;;2.83;;
84007;SDS011;74070;50.948;6.954;2024-01-16T11:51:53;3.03;;;1.80;;
84007;SDS011;74070;50.948;6.954;2024-01-16T11:54:20;10.43;;;3.07;;
84007;SDS011;74070;50.948;6.954;2024-01-16T11:56:53;12.07;;;3.17;;
84007;SDS011;74070;50.948;6.954;2024-01-16T11:59:35;5.43;;;3.10;;
84007;SDS011;74070;50.948;6.954;2024-01-16T12:02:00;5.53;;;2.37;;
84007;SDS011;74070;50.948;6.954;2024-01-16T12:04:27;10.00;;;3.17;;
84007;SDS011;74070;50.948;6.954;2024-01-16T12:06:57;8.17;;;2.67;;
84007;SDS011;74070;50.948;6.954;2024-01-16T12:09:25;10.23;;;3.50;;
84007;SDS011;74070;50.948;6.954;2024-01-16T12:12:02;9.23;;;3.20;;
84007;SDS011;74070;50.948;6.954;2024-01-16T12:14:29;11.40;;;2.77;;
84007;SDS011;74070;50.948;6.954;2024-01-16T12:19:34;7.73;;;2.90;;
84007;SDS011;74070;50.948;6.954;2024-01-16T12:22:00;10.97;;;3.60;;
84007;SDS011;74070;50.948;6.954;2024-01-16T12:24:27;6.70;;;2.23;;
84007;SDS011;74070;50.948;6.954;2024-01-16T12:26:57;7.33;;;3.07;;
84007;SDS011;74070;50.948;6.954;2024-01-16T12:29:21;6.77;;;2.73;;
84007;SDS011;74070;50.948;6.954;2024-01-16T12:31:47;9.83;;;3.43;;
84007;SDS011;74070;50.948;6.954;2024-01-16T12:34:14;9.53;;;3.30;;
84007;SDS011;74070;50.948;6.954;2024-01-16T12:36:40;8.67;;;3.23;;
84007;SDS011;74070;50.948;6.954;2024-01-16T12:39:07;9.83;;;2.50;;
84007;SDS011;74070;50.948;6.954;2024-01-16T12:41:36;7.67;;;2.80;;
84007;SDS011;74070;50.948;6.954;2024-01-16T12:44:02;9.73;;;3.57;;
84007;SDS011;74070;50.948;6.954;2024-01-16T12:46:28;7.33;;;3.00;;
84007;SDS011;74070;50.948;6.954;2024-01-16T12:49:01;8.00;;;3.07;;
84007;SDS011;74070;50.948;6.954;2024-01-16T12:51:27;9.53;;;3.50;;
84007;SDS011;74070;50.948;6.954;2024-01-16T12:53:53;9.33;;;3.47;;
84007;SDS011;74070;50.948;6.954;2024-01-16T12:56:21;9.00;;;3.63;;
84007;SDS011;74070;50.948;6.954;2024-01-16T12:58:47;8.87;;;2.80;;
84007;SDS011;74070;50.948;6.954;2024-01-16T13:01:20;12.07;;;2.63;;
84007;SDS011;74070;50.948;6.954;2024-01-16T13:03:49;4.40;;;2.20;;
84007;SDS011;74070;50.948;6.954;2024-01-16T13:06:17;6.47;;;3.10;;
84007;SDS011;74070;50.948;6.954;2024-01-16T13:08:44;7.37;;;2.43;;
84007;SDS011;74070;50.948;6.954;2024-01-16T13:11:11;10.07;;;3.20;;
84007;SDS011;74070;50.948;6.954;2024-01-16T13:13:37;5.43;;;3.47;;
84007;SDS011;74070;50.948;6.954;2024-01-16T13:16:05;7.50;;;3.07;;
84007;SDS011;74070;50.948;6.954;2024-01-16T13:18:33;11.90;;;3.50;;
84007;SDS011;74070;50.948;6.954;2024-01-16T13:21:00;3.63;;;2.57;;
84007;SDS011;74070;50.948;6.954;2024-01-16T13:23:26;15.43;;;3.93;;
84007;SDS011;74070;50.948;6.954;2024-01-16T13:25:53;11.73;;;3.53;;
84007;SDS011;74070;50.948;6.954;2024-01-16T13:28:19;12.07;;;3.33;;
84007;SDS011;74070;50.948;6.954;2024-01-16T13:30:46;8.30;;;2.60;;
84007;SDS011;74070;50.948;6.954;2024-01-16T13:33:13;11.53;;;3.57;;
84007;SDS011;74070;50.948;6.954;2024-01-16T13:35:40;26.10;;;3.60;;
84007;SDS011;74070;50.948;6.954;2024-01-16T13:38:07;8.20;;;4.00;;
84007;SDS011;74070;50.948;6.954;2024-01-16T13:40:35;6.57;;;3.27;;
84007;SDS011;74070;50.948;6.954;2024-01-16T13:43:02;7.70;;;3.37;;
84007;SDS011;74070;50.948;6.954;2024-01-16T13:45:28;12.77;;;3.40;;
84007;SDS011;74070;50.948;6.954;2024-01-16T13:47:55;8.07;;;3.83;;
84007;SDS011;74070;50.948;6.954;2024-01-16T13:50:22;9.93;;;3.90;;
84007;SDS011;74070;50.948;6.954;2024-01-16T13:52:49;11.53;;;4.13;;
84007;SDS011;74070;50.948;6.954;2024-01-16T13:55:16;7.83;;;3.57;;
84007;SDS011;74070;50.948;6.954;2024-01-16T13:57:43;8.73;;;3.93;;
84007;SDS011;74070;50.948;6.954;2024-01-16T14:00:11;10.80;;;4.30;;
84007;SDS011;74070;50.948;6.954;2024-01-16T14:02:40;8.27;;;3.60;;
84007;SDS011;74070;50.948;6.954;2024-01-16T14:05:07;6.47;;;3.43;;
84007;SDS011;74070;50.948;6.954;2024-01-16T14:07:33;8.87;;;3.80;;
84007;SDS011;74070;50.948;6.954;2024-01-16T14:10:00;7.40;;;3.20;;
84007;SDS011;74070;50.948;6.954;2024-01-16T14:12:27;8.20;;;3.77;;
84007;SDS011;74070;50.948;6.954;2024-01-16T14:14:53;6.67;;;3.63;;
84007;SDS011;74070;50.948;6.954;2024-01-16T14:17:20;9.13;;;3.73;;
84007;SDS011;74070;50.948;6.954;2024-01-16T14:19:47;11.17;;;3.67;;
84007;SDS011;74070;50.948;6.954;2024-01-16T14:22:13;5.83;;;3.73;;
84007;SDS011;74070;50.948;6.954;2024-01-16T14:24:40;11.10;;;3.50;;
84007;SDS011;74070;50.948;6.954;2024-01-16T14:27:07;7.47;;;3.50;;
84007;SDS011;74070;50.948;6.954;2024-01-16T14:29:33;6.07;;;2.87;;
84007;SDS011;74070;50.948;6.954;2024-01-16T14:32:00;7.37;;;3.13;;
84007;SDS011;74070;50.948;6.954;2024-01-16T14:34:27;5.87;;;3.83;;
84007;SDS011;74070;50.948;6.954;2024-01-16T14:36:54;7.60;;;3.00;;
84007;SDS011;74070;50.948;6.954;2024-01-16T14:39:20;6.10;;;3.87;;
84007;SDS011;74070;50.948;6.954;2024-01-16T14:41:48;5.03;;;3.23;;
84007;SDS011;74070;50.948;6.954;2024-01-16T14:44:14;8.83;;;2.70;;
84007;SDS011;74070;50.948;6.954;2024-01-16T14:46:41;7.60;;;3.70;;
84007;SDS011;74070;50.948;6.954;2024-01-16T14:49:09;7.90;;;3.23;;